Time;durP1;ratioP1;P1;durP2;ratioP2;P2;SDS_P1;SDS_P2;PMS_P1;PMS_P2;Temp;Humidity;BMP_temperature;BMP_pressure;BME280_temperature;BME280_humidity;BME280_pressure;Samples;Min_cycle;Max_cycle;Signal;HPM_P1;HPM_P2
2022/06/05 00:00:29;;;;;;;4.07;3.20;;;13.00;56.80;;;;;;4995083;28;20536;-52
2022/06/05 00:03:08;;;;;;;3.47;3.27;;;12.90;62.10;;;;;;5008411;28;20460;-52
2022/06/05 00:05:50;;;;;;;5.00;2.97;;;12.80;58.40;;;;;;5008532;28;20537;-52
2022/06/05 00:08:22;;;;;;;4.20;3.37;;;12.70;53.50;;;;;;5012998;28;20452;-52
2022/06/05 00:10:55;;;;;;;6.43;3.30;;;12.60;49.40;;;;;;5012245;28;20483;-52
2022/06/05 00:13:30;;;;;;;3.70;3.40;;;12.60;45.40;;;;;;5007580;28;21161;-53
2022/06/05 00:15:57;;;;;;;4.60;3.03;;;12.50;42.20;;;;;;5006277;28;21020;-52
2022/06/05 00:18:24;;;;;;;4.43;3.60;;;12.50;40.90;;;;;;5011124;28;21016;-52
2022/06/05 00:20:51;;;;;;;4.13;3.77;;;12.50;41.10;;;;;;5010752;28;20545;-52
2022/06/05 00:23:18;;;;;;;5.10;4.13;;;12.40;35.60;;;;;;4999316;28;20572;-52
2022/06/05 00:25:51;;;;;;;6.67;3.50;;;12.40;34.40;;;;;;5025276;28;20510;-53
2022/06/05 00:28:30;;;;;;;4.27;3.87;;;12.30;31.00;;;;;;5029007;28;20462;-52
2022/06/05 00:31:10;;;;;;;4.30;4.00;;;12.20;24.90;;;;;;5030790;28;20549;-53
2022/06/05 00:33:40;;;;;;;4.03;3.80;;;12.00;99.90;;;;;;5023310;28;20594;-52
2022/06/05 00:36:20;;;;;;;5.17;4.07;;;12.00;90.70;;;;;;5031328;28;20478;-53
2022/06/05 00:39:02;;;;;;;3.90;3.57;;;12.10;99.90;;;;;;5026052;28;20549;-53
2022/06/05 00:41:42;;;;;;;3.77;3.47;;;11.90;99.90;;;;;;5023735;28;20897;-52
2022/06/05 00:44:14;;;;;;;4.50;4.10;;;11.90;99.90;;;;;;5030193;28;20546;-52
2022/06/05 00:46:43;;;;;;;6.27;3.97;;;11.80;99.90;;;;;;5029228;28;20469;-52
2022/06/05 00:49:10;;;;;;;3.73;3.53;;;11.80;99.90;;;;;;5029728;28;20501;-52
2022/06/05 00:51:37;;;;;;;4.30;3.97;;;11.70;99.90;;;;;;5031371;28;20817;-52
2022/06/05 00:54:04;;;;;;;4.63;4.30;;;11.80;99.90;;;;;;5030652;28;20482;-52
2022/06/05 00:56:32;;;;;;;7.10;5.13;;;11.80;99.90;;;;;;5024694;28;20566;-52
2022/06/05 00:58:58;;;;;;;4.50;4.30;;;11.90;99.90;;;;;;5026438;28;21238;-53
2022/06/05 01:01:26;;;;;;;5.10;4.57;;;11.80;99.90;;;;;;5025126;28;20561;-53
2022/06/05 01:03:54;;;;;;;5.73;4.50;;;11.70;99.90;;;;;;5027566;28;20546;-53
2022/06/05 01:06:20;;;;;;;5.37;4.87;;;11.70;99.90;;;;;;5024326;28;20467;-52
2022/06/05 01:08:47;;;;;;;5.37;4.93;;;11.60;99.90;;;;;;5029512;28;20887;-52
2022/06/05 01:11:18;;;;;;;5.27;4.77;;;11.60;99.90;;;;;;5020520;28;20554;-53
2022/06/05 01:14:02;;;;;;;5.27;4.77;;;11.60;99.90;;;;;;5026926;28;20491;-52
2022/06/05 01:16:36;;;;;;;8.60;5.20;;;11.50;99.90;;;;;;5027947;28;20545;-53
2022/06/05 01:19:34;;;;;;;5.47;4.97;;;11.40;99.90;;;;;;5031134;28;20530;-53
2022/06/05 01:22:31;;;;;;;7.47;5.23;;;11.40;99.90;;;;;;5021646;28;20976;-52
2022/06/05 01:25:16;;;;;;;7.00;5.53;;;11.40;99.90;;;;;;5029169;28;20566;-52
2022/06/05 01:27:52;;;;;;;5.30;4.53;;;11.30;99.90;;;;;;5028533;28;21030;-52
2022/06/05 01:30:21;;;;;;;5.90;5.27;;;11.30;99.90;;;;;;5028913;28;20546;-52
2022/06/05 01:32:55;;;;;;;6.17;4.90;;;11.30;99.90;;;;;;5021895;28;20911;-52
2022/06/05 01:35:27;;;;;;;8.53;5.60;;;11.30;99.90;;;;;;5030544;28;20838;-52
2022/06/05 01:37:59;;;;;;;6.33;5.77;;;11.40;99.90;;;;;;5031777;28;21067;-52
2022/06/05 01:40:30;;;;;;;8.27;5.10;;;11.30;99.90;;;;;;5030945;28;20545;-52
2022/06/05 01:43:03;;;;;;;7.00;6.00;;;11.30;99.90;;;;;;5029114;28;20549;-52
2022/06/05 01:45:36;;;;;;;5.17;4.67;;;11.20;99.90;;;;;;5027526;28;20578;-52
2022/06/05 01:48:06;;;;;;;5.43;5.03;;;11.20;99.90;;;;;;5029862;28;20909;-53
2022/06/05 01:50:40;;;;;;;6.97;6.30;;;11.10;99.90;;;;;;5031074;28;20577;-53
2022/06/05 01:53:11;;;;;;;8.53;6.37;;;11.10;99.90;;;;;;5033496;28;20920;-53
2022/06/05 01:55:42;;;;;;;8.87;6.23;;;11.10;99.90;;;;;;5031319;28;20483;-53
2022/06/05 01:58:14;;;;;;;8.37;6.53;;;11.10;99.90;;;;;;5032472;28;20554;-52
2022/06/05 02:00:42;;;;;;;9.03;6.90;;;11.10;99.90;;;;;;5031862;28;21099;-52
2022/06/05 02:03:17;;;;;;;8.10;7.00;;;11.10;99.90;;;;;;5030768;28;20992;-52
2022/06/05 02:05:47;;;;;;;18.03;7.70;;;11.00;99.90;;;;;;5015884;28;20475;-52
2022/06/05 02:08:19;;;;;;;11.90;7.90;;;11.00;99.90;;;;;;5013352;28;20455;-52
2022/06/05 02:10:50;;;;;;;9.20;8.00;;;11.10;99.90;;;;;;5027325;28;20546;-52
2022/06/05 02:13:18;;;;;;;7.97;7.17;;;11.10;99.90;;;;;;5038204;28;20465;-52
2022/06/05 02:15:47;;;;;;;9.00;8.10;;;11.10;99.90;;;;;;5032521;28;20577;-52
2022/06/05 02:18:14;;;;;;;8.53;7.73;;;11.00;99.90;;;;;;5034694;28;20504;-52
2022/06/05 02:20:42;;;;;;;9.77;7.80;;;11.00;99.90;;;;;;5032177;28;20545;-52
2022/06/05 02:23:13;;;;;;;11.60;8.30;;;11.00;99.90;;;;;;5032980;28;20550;-52
2022/06/05 02:25:41;;;;;;;21.53;8.10;;;10.90;99.90;;;;;;5031199;28;20943;-52
2022/06/05 02:28:08;;;;;;;9.60;8.30;;;10.90;99.90;;;;;;5028671;28;21057;-52
2022/06/05 02:30:44;;;;;;;9.27;7.70;;;10.80;99.90;;;;;;5033596;28;20466;-52
2022/06/05 02:33:18;;;;;;;13.87;9.07;;;10.70;99.90;;;;;;5031650;28;20469;-52
2022/06/05 02:35:57;;;;;;;11.20;9.10;;;10.70;99.90;;;;;;5017911;28;20566;-53
2022/06/05 02:38:35;;;;;;;9.30;8.50;;;10.60;99.90;;;;;;5032924;28;21012;-52
2022/06/05 02:41:07;;;;;;;12.20;8.00;;;10.80;99.90;;;;;;5032944;28;20487;-53
2022/06/05 02:43:41;;;;;;;11.33;9.50;;;10.60;99.90;;;;;;5017530;28;20535;-52
2022/06/05 02:46:17;;;;;;;11.90;8.23;;;10.60;99.90;;;;;;5036247;28;20490;-53
2022/06/05 02:48:51;;;;;;;12.27;8.20;;;10.50;99.90;;;;;;5032442;28;20565;-53
2022/06/05 02:51:23;;;;;;;8.50;7.70;;;10.50;99.90;;;;;;5032188;28;20549;-53
2022/06/05 02:53:52;;;;;;;10.00;7.90;;;10.40;99.90;;;;;;5029860;28;20570;-53
2022/06/05 02:56:20;;;;;;;9.70;8.07;;;10.40;99.90;;;;;;5030882;28;20574;-52
2022/06/05 02:58:50;;;;;;;8.80;8.10;;;10.20;99.90;;;;;;5033522;28;20557;-52
2022/06/05 03:04:03;;;;;;;11.77;8.50;;;10.40;99.90;;;;;;5029075;28;20457;-52
2022/06/05 03:06:31;;;;;;;9.90;8.90;;;10.40;99.90;;;;;;5028858;28;20459;-51
2022/06/05 03:08:57;;;;;;;10.33;8.30;;;10.30;99.90;;;;;;5032282;28;20538;-52
2022/06/05 03:11:24;;;;;;;10.10;9.10;;;10.30;99.90;;;;;;5021623;28;20887;-52
2022/06/05 03:13:50;;;;;;;10.17;9.17;;;10.40;99.90;;;;;;5028138;28;20636;-52
2022/06/05 03:16:19;;;;;;;9.63;8.10;;;10.30;99.90;;;;;;5030888;28;20581;-52
2022/06/05 03:18:46;;;;;;;13.40;9.30;;;10.30;99.90;;;;;;5032755;28;20529;-52
2022/06/05 03:21:12;;;;;;;9.37;7.93;;;10.30;99.90;;;;;;5032323;28;20496;-52
2022/06/05 03:23:39;;;;;;;9.73;8.50;;;10.20;99.90;;;;;;5027385;28;20478;-52
2022/06/05 03:26:09;;;;;;;12.33;8.77;;;10.10;99.90;;;;;;5032532;28;20920;-52
2022/06/05 03:28:36;;;;;;;11.70;8.50;;;10.10;99.90;;;;;;5031396;28;20554;-52
2022/06/05 03:31:04;;;;;;;8.95;8.02;;;10.20;99.90;;;;;;5030433;28;21002;-53
2022/06/05 03:33:32;;;;;;;9.90;9.07;;;10.10;99.90;;;;;;5029499;28;20299;-53
2022/06/05 03:35:59;;;;;;;11.77;8.20;;;10.10;99.90;;;;;;5028801;28;20577;-52
2022/06/05 03:38:26;;;;;;;9.23;8.37;;;10.10;99.90;;;;;;5032415;28;21012;-53
2022/06/05 03:40:53;;;;;;;11.10;8.60;;;10.10;99.90;;;;;;5031561;28;20466;-54
2022/06/05 03:43:20;;;;;;;9.50;8.50;;;10.20;99.90;;;;;;5018018;28;20464;-53
2022/06/05 03:45:46;;;;;;;9.53;8.53;;;10.20;99.90;;;;;;5029303;28;20570;-53
2022/06/05 03:48:13;;;;;;;9.47;8.47;;;10.20;99.90;;;;;;5028739;28;20570;-53
2022/06/05 03:50:41;;;;;;;7.93;7.27;;;10.20;99.90;;;;;;5039181;28;20944;-53
2022/06/05 03:53:08;;;;;;;14.30;9.37;;;10.30;99.90;;;;;;5029742;28;20961;-54
2022/06/05 03:55:35;;;;;;;8.33;7.60;;;10.30;99.90;;;;;;5030694;28;20611;-53
2022/06/05 03:58:01;;;;;;;12.77;9.63;;;10.40;99.90;;;;;;5029299;28;20474;-53
2022/06/05 04:00:28;;;;;;;10.03;9.00;;;10.30;99.90;;;;;;5030964;28;20568;-53
2022/06/05 04:02:55;;;;;;;9.30;8.40;;;10.50;99.90;;;;;;5030486;28;20987;-53
2022/06/05 04:05:22;;;;;;;14.00;9.23;;;10.50;99.90;;;;;;5038523;28;20565;-53
2022/06/05 04:07:50;;;;;;;9.40;8.20;;;10.50;99.90;;;;;;5031160;28;20553;-53
2022/06/05 04:10:18;;;;;;;9.70;8.77;;;10.60;99.90;;;;;;5029671;28;20463;-52
2022/06/05 04:12:46;;;;;;;9.63;8.63;;;10.70;99.90;;;;;;5031702;28;20454;-54
2022/06/05 04:15:13;;;;;;;9.93;8.83;;;10.80;99.90;;;;;;5031352;28;20509;-52
2022/06/05 04:17:39;;;;;;;11.20;8.87;;;10.90;99.90;;;;;;5030691;28;20554;-54
2022/06/05 04:20:07;;;;;;;9.30;8.40;;;10.90;99.90;;;;;;5030614;28;21055;-53
2022/06/05 04:22:34;;;;;;;9.40;8.10;;;10.90;99.90;;;;;;5029040;28;20557;-52
2022/06/05 04:25:03;;;;;;;10.37;9.30;;;11.00;99.90;;;;;;5029985;28;20984;-54
2022/06/05 04:27:29;;;;;;;15.70;9.43;;;11.20;99.90;;;;;;5031323;28;20490;-53
2022/06/05 04:29:58;;;;;;;14.40;8.83;;;11.20;99.90;;;;;;5032048;28;20550;-53
2022/06/05 04:32:24;;;;;;;9.30;8.27;;;11.30;99.90;;;;;;5026961;28;20533;-53
2022/06/05 04:34:52;;;;;;;12.47;8.40;;;11.40;99.90;;;;;;5022474;28;20691;-53
2022/06/05 04:37:18;;;;;;;13.30;8.70;;;11.40;99.90;;;;;;5030532;28;20454;-53
2022/06/05 04:39:45;;;;;;;8.70;7.87;;;11.40;99.90;;;;;;5030578;28;20570;-53
2022/06/05 04:42:13;;;;;;;8.00;7.30;;;11.50;99.90;;;;;;5030711;28;20541;-53
2022/06/05 04:44:40;;;;;;;8.33;7.53;;;11.60;99.90;;;;;;5030995;28;20565;-53
2022/06/05 04:47:06;;;;;;;8.80;7.90;;;11.60;99.90;;;;;;5030960;28;20463;-53
2022/06/05 04:49:35;;;;;;;11.90;7.40;;;11.70;99.90;;;;;;5030486;28;20561;-53
2022/06/05 04:52:02;;;;;;;9.67;7.73;;;11.80;99.90;;;;;;5029856;28;20459;-53
2022/06/05 04:54:28;;;;;;;8.10;6.50;;;11.90;99.90;;;;;;5027412;28;20565;-53
2022/06/05 04:56:55;;;;;;;8.50;7.30;;;12.00;99.90;;;;;;5026109;28;20554;-52
2022/06/05 04:59:23;;;;;;;7.97;7.17;;;12.00;99.90;;;;;;5032088;28;20532;-53
2022/06/05 05:01:49;;;;;;;8.00;7.27;;;12.10;99.90;;;;;;5031097;28;20872;-53
2022/06/05 05:04:16;;;;;;;9.10;6.80;;;12.20;99.90;;;;;;5025490;28;20578;-53
2022/06/05 05:06:44;;;;;;;7.63;7.00;;;12.30;99.90;;;;;;5021428;28;20467;-54
2022/06/05 05:09:11;;;;;;;8.53;7.40;;;12.30;99.90;;;;;;5027717;28;21050;-53
2022/06/05 05:11:37;;;;;;;7.57;6.77;;;12.40;99.90;;;;;;5024210;28;20545;-53
2022/06/05 05:14:05;;;;;;;9.80;6.97;;;12.40;99.90;;;;;;5028398;28;21059;-54
2022/06/05 05:16:33;;;;;;;13.03;7.03;;;12.50;99.90;;;;;;5029047;28;20549;-53
2022/06/05 05:18:59;;;;;;;9.90;6.60;;;12.60;99.90;;;;;;5029246;28;20513;-53
2022/06/05 05:21:28;;;;;;;6.70;5.97;;;12.80;99.90;;;;;;5029132;28;20498;-53
2022/06/05 05:26:27;;;;;;;7.93;6.27;;;13.00;99.90;;;;;;5007181;28;20475;-55
2022/06/05 05:28:55;;;;;;;6.93;6.27;;;13.10;99.90;;;;;;5014300;28;20525;-55
2022/06/05 05:31:24;;;;;;;6.60;6.10;;;13.20;99.90;;;;;;5004575;28;20882;-55
2022/06/05 05:33:52;;;;;;;6.53;6.00;;;13.30;99.90;;;;;;5004840;28;20558;-54
2022/06/05 05:36:20;;;;;;;7.23;5.90;;;13.30;99.90;;;;;;4995540;28;20535;-54
2022/06/05 05:44:17;;;;;;;9.60;5.57;;;13.70;99.90;;;;;;4992700;28;20961;-55
2022/06/05 05:46:44;;;;;;;6.00;5.50;;;13.70;99.90;;;;;;4995476;28;20503;-55
2022/06/05 05:49:13;;;;;;;6.10;5.50;;;13.80;99.90;;;;;;4994652;28;20551;-55
2022/06/05 05:51:41;;;;;;;6.83;5.90;;;13.90;99.90;;;;;;4994238;28;20555;-54
2022/06/05 05:54:08;;;;;;;5.80;5.07;;;14.00;99.90;;;;;;4993979;28;20515;-55
2022/06/05 05:56:36;;;;;;;10.00;5.87;;;14.10;99.90;;;;;;4993986;28;20547;-55
2022/06/05 05:59:03;;;;;;;5.53;4.73;;;14.10;99.90;;;;;;4994284;28;20499;-55
2022/06/05 06:01:30;;;;;;;5.27;4.87;;;14.20;94.00;;;;;;4993155;28;20540;-58
2022/06/05 06:03:57;;;;;;;6.77;5.00;;;14.30;23.80;;;;;;4994370;28;20547;-55
2022/06/05 06:06:27;;;;;;;8.43;5.23;;;14.40;26.50;;;;;;4994742;28;20539;-55
2022/06/05 06:08:54;;;;;;;6.80;5.30;;;14.60;36.60;;;;;;4993697;28;21179;-55
2022/06/05 06:11:20;;;;;;;10.07;5.50;;;14.70;38.60;;;;;;4992673;28;20556;-54
2022/06/05 06:13:47;;;;;;;5.13;4.73;;;14.80;40.60;;;;;;4995454;28;20620;-55
2022/06/05 06:16:14;;;;;;;7.90;5.87;;;14.90;44.50;;;;;;4990708;28;21076;-53
2022/06/05 06:18:41;;;;;;;6.10;4.70;;;14.90;47.10;;;;;;4994385;28;20499;-54
2022/06/05 06:21:07;;;;;;;5.53;5.10;;;15.00;48.00;;;;;;4991329;28;20930;-56
2022/06/05 06:23:35;;;;;;;8.70;5.50;;;15.20;60.50;;;;;;4993321;28;20473;-55
2022/06/05 06:26:05;;;;;;;5.97;5.30;;;15.30;75.20;;;;;;4992790;28;20583;-55
2022/06/05 06:28:31;;;;;;;11.73;4.50;;;15.40;82.10;;;;;;4994490;28;20532;-55
2022/06/05 06:30:58;;;;;;;13.00;5.07;;;15.60;85.00;;;;;;4990872;28;21025;-55
2022/06/05 06:33:24;;;;;;;5.13;4.73;;;15.70;87.30;;;;;;4993543;28;20480;-54
2022/06/05 06:35:51;;;;;;;7.40;4.60;;;15.90;99.20;;;;;;4992581;28;20575;-55
2022/06/05 06:38:17;;;;;;;6.80;4.97;;;15.90;99.90;;;;;;4992859;28;20547;-55
2022/06/05 06:40:45;;;;;;;4.67;4.27;;;16.00;99.90;;;;;;4991002;28;20876;-53
2022/06/05 06:43:11;;;;;;;5.27;4.87;;;16.10;99.90;;;;;;4991293;28;20559;-55
2022/06/05 06:45:38;;;;;;;4.53;3.97;;;16.20;99.90;;;;;;4987140;28;20567;-55
2022/06/05 06:48:05;;;;;;;7.17;4.80;;;16.30;99.90;;;;;;4993740;28;20587;-55
2022/06/05 06:50:32;;;;;;;6.53;5.17;;;16.40;99.90;;;;;;4989989;28;20523;-55
2022/06/05 06:52:58;;;;;;;7.67;4.87;;;16.60;99.90;;;;;;4987716;28;20572;-55
2022/06/05 06:55:25;;;;;;;8.60;4.70;;;16.80;99.90;;;;;;4993290;28;20579;-55
2022/06/05 06:57:53;;;;;;;6.90;5.20;;;16.90;99.90;;;;;;4992898;28;20547;-55
2022/06/05 07:00:20;;;;;;;6.60;4.93;;;17.00;99.90;;;;;;4994636;28;20457;-55
2022/06/05 07:02:47;;;;;;;5.80;4.40;;;17.00;99.90;;;;;;4992871;28;21010;-54
2022/06/05 07:05:13;;;;;;;6.30;5.70;;;17.10;99.90;;;;;;4993205;28;20503;-55
2022/06/05 07:07:40;;;;;;;4.60;4.30;;;17.10;99.90;;;;;;4992149;28;21053;-55
2022/06/05 07:10:07;;;;;;;4.50;4.20;;;17.20;99.90;;;;;;4993615;28;20548;-54
2022/06/05 07:12:35;;;;;;;5.30;4.83;;;17.30;99.90;;;;;;4993798;28;20535;-55
2022/06/05 07:15:03;;;;;;;6.23;4.57;;;17.40;99.90;;;;;;4987732;28;20493;-54
2022/06/05 07:17:30;;;;;;;4.80;4.50;;;17.40;99.90;;;;;;4993981;28;20887;-54
2022/06/05 07:19:57;;;;;;;5.63;5.00;;;17.50;99.90;;;;;;4991868;28;20510;-55
2022/06/05 07:22:23;;;;;;;4.50;4.20;;;17.60;99.90;;;;;;4993552;28;20448;-55
2022/06/05 07:24:50;;;;;;;5.70;5.20;;;17.60;99.90;;;;;;4990919;28;20571;-55
2022/06/05 07:27:18;;;;;;;5.40;4.90;;;17.70;99.90;;;;;;4990640;28;21051;-55
2022/06/05 07:29:44;;;;;;;7.63;4.60;;;17.80;99.90;;;;;;4989215;28;20961;-55
2022/06/05 07:32:13;;;;;;;7.07;4.40;;;17.90;99.90;;;;;;4984767;28;20492;-55
2022/06/05 07:34:40;;;;;;;5.77;3.87;;;18.00;99.90;;;;;;4993170;28;20480;-55
2022/06/05 07:37:07;;;;;;;3.93;3.70;;;18.10;99.90;;;;;;4984028;28;21227;-53
2022/06/05 07:39:34;;;;;;;5.10;4.00;;;18.20;99.90;;;;;;4991164;28;20555;-54
2022/06/05 07:42:01;;;;;;;8.30;3.93;;;18.40;99.90;;;;;;4991322;28;20475;-54
2022/06/05 07:44:28;;;;;;;3.80;3.50;;;18.50;99.90;;;;;;4992030;28;20512;-54
2022/06/05 07:46:55;;;;;;;4.10;3.70;;;18.60;99.90;;;;;;4990059;28;20556;-54
2022/06/05 07:49:23;;;;;;;3.97;3.70;;;18.80;99.90;;;;;;4989633;28;20503;-55
2022/06/05 07:54:35;;;;;;;5.13;4.10;;;18.90;99.90;;;;;;4991149;28;20491;-55
2022/06/05 07:57:03;;;;;;;5.93;5.23;;;19.00;99.90;;;;;;4992266;28;20847;-54
2022/06/05 07:59:33;;;;;;;8.70;4.50;;;19.10;99.90;;;;;;4988557;28;20544;-55
2022/06/05 08:02:03;;;;;;;5.33;4.20;;;19.20;99.90;;;;;;4991471;28;20461;-54
2022/06/05 08:04:32;;;;;;;4.47;4.03;;;19.30;99.90;;;;;;4992495;28;20485;-54
2022/06/05 08:07:00;;;;;;;4.57;4.10;;;19.40;99.90;;;;;;4993493;28;20524;-54
2022/06/05 08:09:28;;;;;;;4.70;4.40;;;19.40;99.90;;;;;;4990934;28;20493;-54
2022/06/05 08:11:54;;;;;;;7.10;3.70;;;19.40;99.90;;;;;;4990888;28;20983;-54
2022/06/05 08:14:21;;;;;;;5.50;4.27;;;19.40;99.90;;;;;;4991118;28;20583;-53
2022/06/05 08:16:48;;;;;;;6.87;3.93;;;19.50;1.40;;;;;;4988867;28;21185;-54
2022/06/05 08:19:17;;;;;;;5.63;4.10;;;19.50;99.90;;;;;;4992270;28;20539;-54
2022/06/05 08:21:46;;;;;;;4.70;3.93;;;19.70;99.90;;;;;;4990639;28;21041;-54
2022/06/05 08:24:13;;;;;;;4.60;4.17;;;19.80;99.90;;;;;;4990375;28;20460;-54
2022/06/05 08:26:40;;;;;;;3.73;3.43;;;19.90;99.90;;;;;;4991760;28;20540;-53
2022/06/05 08:29:07;;;;;;;3.10;3.00;;;20.10;99.90;;;;;;4986285;28;20911;-53
2022/06/05 08:31:34;;;;;;;3.43;3.13;;;20.30;99.90;;;;;;4984583;28;20481;-54
2022/06/05 08:34:02;;;;;;;4.13;3.00;;;20.30;99.90;;;;;;4992809;28;20459;-52
2022/06/05 08:36:29;;;;;;;3.03;2.73;;;20.40;99.90;;;;;;4988646;28;20488;-53
2022/06/05 08:41:55;;;;;;;2.83;2.73;;;20.70;99.90;;;;;;4977901;28;20446;-53
2022/06/05 08:44:36;;;;;;;5.27;3.07;;;20.90;99.90;;;;;;4988705;28;20972;-53
2022/06/05 08:47:09;;;;;;;3.57;2.97;;;21.00;99.90;;;;;;4989573;28;21163;-53
2022/06/05 08:49:45;;;;;;;3.10;2.90;;;21.10;99.90;;;;;;4984293;28;20524;-54
2022/06/05 08:52:27;;;;;;;2.70;2.50;;;21.20;99.90;;;;;;4989076;28;20550;-54
2022/06/05 08:54:58;;;;;;;3.40;2.30;;;21.20;99.90;;;;;;4991159;28;21076;-54
2022/06/05 08:57:30;;;;;;;2.00;2.00;;;21.30;99.90;;;;;;4991744;28;20580;-54
2022/06/05 09:00:02;;;;;;;4.50;3.43;;;21.50;99.90;;;;;;4991408;28;20461;-54
2022/06/05 09:02:40;;;;;;;2.77;2.67;;;21.50;99.90;;;;;;4991084;28;20476;-53
2022/06/05 09:05:12;;;;;;;2.97;2.57;;;21.60;99.90;;;;;;4989858;28;20575;-53
2022/06/05 09:07:44;;;;;;;3.40;3.20;;;21.70;99.90;;;;;;4990328;28;20464;-53
2022/06/05 09:10:18;;;;;;;3.13;2.50;;;21.70;99.90;;;;;;4991706;28;20461;-54
2022/06/05 09:12:50;;;;;;;2.30;2.20;;;21.90;99.90;;;;;;4989996;28;20547;-54
2022/06/05 09:15:28;;;;;;;3.20;2.50;;;22.00;99.90;;;;;;4991932;28;20616;-52
2022/06/05 09:17:57;;;;;;;4.93;2.77;;;22.00;99.90;;;;;;4991901;28;20539;-53
2022/06/05 09:20:43;;;;;;;5.67;3.00;;;22.10;99.90;;;;;;4990717;28;20540;-53
2022/06/05 09:23:19;;;;;;;8.93;2.80;;;22.30;99.90;;;;;;4987465;28;20465;-54
2022/06/05 09:25:54;;;;;;;3.30;3.10;;;22.40;99.90;;;;;;4988968;28;20570;-53
2022/06/05 09:29:04;;;;;;;3.17;2.97;;;22.40;99.90;;;;;;4990732;28;20558;-54
2022/06/05 09:32:10;;;;;;;3.10;2.90;;;22.60;99.90;;;;;;4987370;28;20496;-54
2022/06/05 09:34:40;;;;;;;4.27;3.03;;;22.80;99.90;;;;;;4934939;29;20572;-54
2022/06/05 09:37:14;;;;;;;3.00;2.80;;;22.90;99.90;;;;;;4985284;28;20567;-54
2022/06/05 09:39:45;;;;;;;5.33;3.33;;;23.00;99.90;;;;;;4989747;28;20559;-53
2022/06/05 09:42:29;;;;;;;10.13;4.00;;;23.00;99.90;;;;;;4990719;28;20461;-53
2022/06/05 09:45:07;;;;;;;4.33;3.50;;;23.10;99.90;;;;;;4991727;28;20488;-53
2022/06/05 09:47:40;;;;;;;5.00;3.30;;;23.30;99.90;;;;;;4988721;28;20476;-54
2022/06/05 09:50:19;;;;;;;3.53;3.00;;;23.40;99.90;;;;;;4991037;28;20547;-53
2022/06/05 09:52:48;;;;;;;3.33;2.67;;;23.40;99.90;;;;;;4984874;28;21037;-53
2022/06/05 09:55:19;;;;;;;5.03;3.00;;;23.40;99.90;;;;;;4990498;28;20483;-53
2022/06/05 10:00:49;;;;;;;7.03;3.43;;;23.60;99.90;;;;;;4987901;28;21108;-53
2022/06/05 10:03:20;;;;;;;6.30;3.20;;;23.70;99.90;;;;;;4988775;28;20954;-53
2022/06/05 10:06:19;;;;;;;3.20;2.90;;;23.90;99.90;;;;;;4985000;28;20954;-54
2022/06/05 10:08:48;;;;;;;4.40;2.80;;;23.90;99.90;;;;;;4984941;28;20989;-53
2022/06/05 10:11:23;;;;;;;3.70;3.23;;;23.90;99.90;;;;;;4992178;28;20545;-53
2022/06/05 10:13:58;;;;;;;3.53;3.23;;;24.00;99.90;;;;;;4995688;28;20519;-53
2022/06/05 10:16:32;;;;;;;10.40;3.23;;;24.10;99.90;;;;;;4994672;28;20575;-54
2022/06/05 10:19:07;;;;;;;2.60;2.50;;;24.10;99.90;;;;;;4994162;28;20535;-55
2022/06/05 10:21:40;;;;;;;2.40;2.30;;;24.10;99.90;;;;;;4984256;28;21064;-53
2022/06/05 10:24:18;;;;;;;2.53;2.43;;;24.20;99.90;;;;;;4994240;28;20559;-54
2022/06/05 10:26:48;;;;;;;3.83;2.57;;;24.20;99.90;;;;;;4993740;28;20539;-54
2022/06/05 10:29:22;;;;;;;3.07;2.83;;;24.30;99.90;;;;;;4994553;28;20539;-53
2022/06/05 10:31:57;;;;;;;3.10;2.80;;;24.40;99.90;;;;;;4993597;28;20464;-53
2022/06/05 10:34:32;;;;;;;5.13;3.03;;;24.40;99.90;;;;;;4992713;28;20559;-52
2022/06/05 10:37:12;;;;;;;3.10;2.80;;;24.30;99.90;;;;;;4990264;28;20575;-54
2022/06/05 10:39:51;;;;;;;4.20;3.27;;;24.30;99.90;;;;;;4993501;28;20826;-53
2022/06/05 10:42:28;;;;;;;5.00;2.70;;;24.30;99.90;;;;;;4992502;28;20528;-54
2022/06/05 10:45:07;;;;;;;5.67;2.97;;;24.50;99.90;;;;;;4993910;28;21053;-54
2022/06/05 10:47:41;;;;;;;4.60;2.87;;;24.50;99.90;;;;;;4986809;28;20467;-54
2022/06/05 10:50:12;;;;;;;7.80;2.83;;;24.60;99.90;;;;;;4993466;28;20535;-54
2022/06/05 10:52:45;;;;;;;3.73;2.80;;;24.60;99.90;;;;;;4992286;28;20535;-54
2022/06/05 10:55:29;;;;;;;3.47;2.70;;;24.70;99.90;;;;;;4991280;28;20578;-53
2022/06/05 10:58:05;;;;;;;3.27;3.03;;;24.80;99.90;;;;;;4993864;28;20488;-54
2022/06/05 11:00:38;;;;;;;3.40;3.20;;;24.90;99.90;;;;;;4981053;28;21057;-53
2022/06/05 11:03:12;;;;;;;3.10;2.90;;;25.00;99.90;;;;;;4993438;28;20492;-53
2022/06/05 11:05:52;;;;;;;5.23;3.47;;;25.10;99.90;;;;;;4989135;28;20572;-52
2022/06/05 11:08:30;;;;;;;3.10;2.80;;;25.00;99.90;;;;;;4990873;28;20637;-53
2022/06/05 11:14:12;;;;;;;4.40;3.10;;;25.10;99.90;;;;;;4989768;28;20447;-52
2022/06/05 11:16:48;;;;;;;4.43;3.13;;;25.10;99.90;;;;;;4987178;28;20495;-53
2022/06/05 11:19:22;;;;;;;4.20;3.80;;;25.20;99.90;;;;;;4993204;28;20905;-53
2022/06/05 11:21:50;;;;;;;3.63;3.30;;;25.30;99.90;;;;;;4992409;28;20552;-55
2022/06/05 11:24:24;;;;;;;3.20;3.00;;;25.30;99.90;;;;;;5009015;22;20547;-53
2022/06/05 11:26:57;;;;;;;3.40;3.20;;;25.50;99.90;;;;;;5066604;28;20534;-53
2022/06/05 11:29:32;;;;;;;4.23;3.17;;;25.60;99.90;;;;;;5067194;28;20453;-54
2022/06/05 11:32:17;;;;;;;8.07;3.50;;;25.70;99.90;;;;;;5064915;28;20527;-54
2022/06/05 11:34:49;;;;;;;8.70;2.60;;;25.80;99.90;;;;;;5071707;28;21057;-54
2022/06/05 11:37:37;;;;;;;3.10;2.93;;;25.80;99.90;;;;;;5071148;28;20945;-53
2022/06/05 11:40:18;;;;;;;3.93;3.60;;;25.80;99.90;;;;;;5069762;28;20840;-53
2022/06/05 11:42:51;;;;;;;5.20;3.60;;;26.00;99.90;;;;;;5067546;28;20539;-54
2022/06/05 11:45:37;;;;;;;3.97;3.67;;;25.80;99.90;;;;;;5072152;28;20538;-53
2022/06/05 11:48:12;;;;;;;13.43;3.70;;;25.80;99.90;;;;;;5071989;28;20520;-54
2022/06/05 11:50:46;;;;;;;5.67;3.80;;;25.80;99.90;;;;;;5070305;28;20452;-53
2022/06/05 11:53:18;;;;;;;3.70;3.40;;;25.80;99.90;;;;;;5071524;28;20502;-53
2022/06/05 11:55:51;;;;;;;3.90;3.70;;;25.80;99.90;;;;;;5071082;28;20564;-53
2022/06/05 11:58:24;;;;;;;7.00;3.80;;;25.80;99.90;;;;;;5070834;28;20559;-54
2022/06/05 12:00:55;;;;;;;9.10;4.10;;;25.90;99.90;;;;;;5071691;28;21009;-53
2022/06/05 12:03:29;;;;;;;3.60;3.40;;;26.00;99.90;;;;;;5071092;28;20547;-53
2022/06/05 12:06:02;;;;;;;3.80;3.60;;;25.80;99.90;;;;;;5070377;28;20534;-53
2022/06/05 12:08:33;;;;;;;4.43;4.03;;;25.90;99.90;;;;;;5069962;28;20536;-53
2022/06/05 12:11:05;;;;;;;5.90;4.07;;;26.00;99.90;;;;;;5069791;28;20484;-53
2022/06/05 12:13:47;;;;;;;11.60;4.50;;;26.10;99.90;;;;;;5072166;28;20536;-54
2022/06/05 12:16:19;;;;;;;5.23;3.87;;;26.00;99.90;;;;;;5072405;28;20976;-54
2022/06/05 12:18:53;;;;;;;4.40;4.00;;;26.00;99.90;;;;;;5072457;28;20476;-54
2022/06/05 12:21:24;;;;;;;4.07;3.77;;;26.20;99.90;;;;;;5059808;28;20522;-54
2022/06/05 12:23:59;;;;;;;4.40;4.00;;;26.20;99.90;;;;;;5069506;28;20548;-53
2022/06/05 12:26:36;;;;;;;4.43;3.93;;;26.30;99.90;;;;;;5069868;28;20549;-54
2022/06/05 12:29:11;;;;;;;5.00;4.03;;;26.40;99.90;;;;;;5071798;28;20492;-53
2022/06/05 12:31:45;;;;;;;6.50;4.00;;;26.50;99.90;;;;;;5066894;28;20583;-53
2022/06/05 12:34:15;;;;;;;4.23;3.63;;;26.50;99.90;;;;;;5068943;28;20982;-53
2022/06/05 12:36:45;;;;;;;4.07;3.50;;;26.60;99.90;;;;;;5071567;28;20515;-54
2022/06/05 12:39:18;;;;;;;3.60;3.40;;;26.70;99.90;;;;;;5070368;28;20827;-52
2022/06/05 12:41:59;;;;;;;6.60;3.87;;;26.80;99.90;;;;;;5070596;28;20488;-52
2022/06/05 12:44:29;;;;;;;10.70;4.10;;;26.80;99.90;;;;;;5069546;28;20567;-54
2022/06/05 12:47:04;;;;;;;7.57;4.50;;;26.80;99.90;;;;;;5070561;28;20548;-53
2022/06/05 12:49:44;;;;;;;4.10;3.80;;;26.90;99.90;;;;;;5069546;28;20924;-54
2022/06/05 12:52:31;;;;;;;5.93;3.80;;;26.90;99.90;;;;;;5069552;28;20547;-54
2022/06/05 12:55:05;;;;;;;12.50;3.80;;;27.00;99.90;;;;;;5070400;28;20560;-53
2022/06/05 12:57:39;;;;;;;4.30;3.57;;;26.80;99.90;;;;;;5069834;28;20909;-53
2022/06/05 13:00:14;;;;;;;4.03;3.53;;;26.90;99.90;;;;;;5067490;28;20437;-53
2022/06/05 13:02:45;;;;;;;4.30;3.90;;;26.90;99.90;;;;;;5070111;28;20555;-53
2022/06/05 13:05:21;;;;;;;4.17;3.87;;;27.00;99.90;;;;;;5070712;28;20575;-54
2022/06/05 13:07:55;;;;;;;14.00;4.30;;;26.80;99.90;;;;;;5070629;28;20465;-53
2022/06/05 13:10:29;;;;;;;4.70;3.80;;;26.90;99.90;;;;;;5071654;28;20448;-53
2022/06/05 13:13:05;;;;;;;5.70;3.73;;;26.90;99.90;;;;;;5069995;28;20535;-52
2022/06/05 13:15:39;;;;;;;4.57;4.10;;;26.90;99.90;;;;;;5069574;28;20563;-54
2022/06/05 13:18:14;;;;;;;3.83;3.63;;;26.80;99.90;;;;;;5070871;28;20493;-53
2022/06/05 13:20:50;;;;;;;4.33;3.97;;;26.80;99.90;;;;;;5066634;28;20528;-53
2022/06/05 13:23:29;;;;;;;4.50;4.10;;;26.90;99.90;;;;;;5070198;28;20527;-53
2022/06/05 13:26:04;;;;;;;3.90;3.70;;;27.00;99.90;;;;;;5062753;28;20579;-53
2022/06/05 13:28:41;;;;;;;4.97;4.20;;;26.90;99.90;;;;;;5067051;28;20453;-54